createdAt,value
2018-08-31T00:00:53.884Z,16.00
2018-08-31T00:03:38.871Z,16.00
2018-08-31T00:06:24.055Z,15.90
2018-08-31T00:10:11.119Z,15.90
2018-08-31T00:12:39.851Z,15.90
2018-08-31T00:15:07.967Z,15.90
2018-08-31T00:17:37.074Z,15.90
2018-08-31T00:20:04.902Z,15.90
2018-08-31T00:22:32.691Z,15.90
2018-08-31T00:25:18.948Z,15.80
2018-08-31T00:28:04.556Z,15.70
2018-08-31T00:31:52.929Z,15.60
2018-08-31T00:36:57.396Z,15.60
2018-08-31T00:40:06.691Z,15.70
2018-08-31T00:43:56.798Z,15.70
2018-08-31T00:46:24.953Z,15.60
2018-08-31T00:48:53.387Z,15.60
2018-08-31T00:51:21.099Z,15.60
2018-08-31T00:53:48.860Z,15.50
2018-08-31T00:56:16.580Z,15.50
2018-08-31T00:58:44.244Z,15.50
2018-08-31T01:01:13.944Z,15.40
2018-08-31T01:03:41.621Z,15.30
2018-08-31T01:06:09.381Z,15.30
2018-08-31T01:08:37.037Z,15.30
2018-08-31T01:11:04.719Z,15.30
2018-08-31T01:13:32.521Z,15.30
2018-08-31T01:16:00.364Z,15.20
2018-08-31T01:18:28.173Z,15.30
2018-08-31T01:20:56.195Z,15.20
2018-08-31T01:23:24.035Z,15.20
2018-08-31T01:25:51.756Z,15.20
2018-08-31T01:28:19.407Z,15.20
2018-08-31T01:30:47.147Z,15.20
2018-08-31T01:33:14.791Z,15.20
2018-08-31T01:35:42.439Z,15.10
2018-08-31T01:38:10.168Z,15.10
2018-08-31T01:40:37.816Z,15.00
2018-08-31T01:43:05.654Z,15.00
2018-08-31T01:45:33.330Z,14.90
2018-08-31T01:48:01.101Z,14.90
2018-08-31T01:50:28.747Z,14.80
2018-08-31T01:52:56.654Z,14.80
2018-08-31T01:55:30.942Z,14.80
2018-08-31T01:58:00.579Z,14.80
2018-08-31T02:00:28.663Z,14.70
2018-08-31T02:02:56.412Z,14.70
2018-08-31T02:05:24.311Z,14.70
2018-08-31T02:07:51.998Z,14.70
2018-08-31T02:10:19.639Z,14.70
2018-08-31T02:12:47.322Z,14.80
2018-08-31T02:15:15.003Z,14.70
2018-08-31T02:17:42.647Z,14.70
2018-08-31T02:20:10.378Z,14.60
2018-08-31T02:22:38.030Z,14.50
2018-08-31T02:25:05.675Z,14.50
2018-08-31T02:27:33.756Z,14.70
2018-08-31T02:30:01.425Z,14.70
2018-08-31T02:32:29.076Z,14.70
2018-08-31T02:34:57.015Z,14.60
2018-08-31T02:37:24.731Z,14.50
2018-08-31T02:39:52.488Z,14.40
2018-08-31T02:42:20.393Z,14.40
2018-08-31T02:44:48.069Z,14.40
2018-08-31T02:47:15.753Z,14.40
2018-08-31T02:49:43.784Z,14.40
2018-08-31T02:52:11.735Z,14.40
2018-08-31T02:54:39.624Z,14.50
2018-08-31T02:57:07.344Z,14.50
2018-08-31T02:59:35.160Z,14.50
2018-08-31T03:02:02.887Z,14.40
2018-08-31T03:04:30.988Z,14.40
2018-08-31T03:06:58.684Z,14.40
2018-08-31T03:09:26.493Z,14.30
2018-08-31T03:11:54.188Z,14.30
2018-08-31T03:14:22.051Z,14.30
2018-08-31T03:16:49.816Z,14.40
2018-08-31T03:19:17.513Z,14.40
2018-08-31T03:21:45.667Z,14.40
2018-08-31T03:24:13.478Z,14.40
2018-08-31T03:26:41.255Z,14.30
2018-08-31T03:29:09.043Z,14.30
2018-08-31T03:31:36.815Z,14.30
2018-08-31T03:34:04.564Z,14.30
2018-08-31T03:36:32.250Z,14.30
2018-08-31T03:38:59.943Z,14.30
2018-08-31T03:41:27.657Z,14.30
2018-08-31T03:43:55.330Z,14.30
2018-08-31T03:46:23.026Z,14.20
2018-08-31T03:48:50.695Z,14.20
2018-08-31T03:51:18.443Z,14.20
2018-08-31T03:53:47.039Z,14.10
2018-08-31T03:56:14.803Z,14.10
2018-08-31T03:58:42.748Z,14.20
2018-08-31T04:01:10.416Z,14.20
2018-08-31T04:03:38.282Z,14.20
2018-08-31T04:06:06.171Z,14.20
2018-08-31T04:08:34.020Z,14.20
2018-08-31T04:11:01.801Z,14.10
2018-08-31T04:13:29.532Z,14.10
2018-08-31T04:15:57.227Z,14.00
2018-08-31T04:18:24.943Z,13.90
2018-08-31T04:20:52.859Z,13.90
2018-08-31T04:23:20.555Z,13.90
2018-08-31T04:25:48.535Z,13.90
2018-08-31T04:28:16.344Z,13.90
2018-08-31T04:30:44.123Z,13.90
2018-08-31T04:33:11.853Z,13.90
2018-08-31T04:35:39.684Z,13.90
2018-08-31T04:38:07.419Z,13.90
2018-08-31T04:40:36.759Z,13.90
2018-08-31T04:43:04.479Z,13.90
2018-08-31T04:45:32.195Z,13.90
2018-08-31T04:47:59.886Z,13.90
2018-08-31T04:50:27.600Z,14.00
2018-08-31T04:52:55.703Z,14.00
2018-08-31T04:55:23.343Z,14.00
2018-08-31T04:57:51.274Z,14.00
2018-08-31T05:00:18.906Z,14.10
2018-08-31T05:02:46.916Z,14.10
2018-08-31T05:05:14.599Z,14.00
2018-08-31T05:07:42.583Z,14.10
2018-08-31T05:10:10.435Z,14.00
2018-08-31T05:12:38.146Z,14.20
2018-08-31T05:15:06.168Z,14.20
2018-08-31T05:17:34.080Z,14.20
2018-08-31T05:20:01.736Z,14.20
2018-08-31T05:22:29.530Z,14.20
2018-08-31T05:24:57.108Z,14.20
2018-08-31T05:27:24.740Z,14.20
2018-08-31T05:29:52.403Z,14.30
2018-08-31T05:32:20.545Z,14.30
2018-08-31T05:34:48.501Z,14.30
2018-08-31T05:37:16.117Z,14.30
2018-08-31T05:39:43.812Z,14.40
2018-08-31T05:42:11.496Z,14.40
2018-08-31T05:44:39.287Z,14.40
2018-08-31T05:47:07.539Z,14.50
2018-08-31T05:49:35.260Z,14.50
2018-08-31T05:52:03.552Z,14.60
2018-08-31T05:54:31.224Z,14.60
2018-08-31T05:56:58.954Z,14.60
2018-08-31T05:59:26.679Z,14.60
2018-08-31T06:01:54.459Z,14.60
2018-08-31T06:04:22.236Z,14.70
2018-08-31T06:06:49.915Z,14.80
2018-08-31T06:09:17.617Z,14.90
2018-08-31T06:11:45.363Z,15.00
2018-08-31T06:14:13.161Z,15.10
2018-08-31T06:16:40.913Z,15.20
2018-08-31T06:19:08.596Z,15.20
2018-08-31T06:21:36.373Z,15.30
2018-08-31T06:24:04.149Z,15.30
2018-08-31T06:26:32.128Z,15.40
2018-08-31T06:28:59.816Z,15.40
2018-08-31T06:31:27.480Z,15.40
2018-08-31T06:33:55.237Z,15.40
2018-08-31T06:36:22.879Z,15.40
2018-08-31T06:38:50.539Z,15.50
2018-08-31T06:41:18.227Z,15.50
2018-08-31T06:43:45.912Z,15.50
2018-08-31T06:46:13.586Z,15.50
2018-08-31T06:48:41.681Z,15.40
2018-08-31T06:51:09.485Z,15.40
2018-08-31T06:53:37.116Z,15.40
2018-08-31T06:56:05.113Z,15.50
2018-08-31T06:58:32.879Z,15.40
2018-08-31T07:01:00.790Z,15.50
2018-08-31T07:03:28.445Z,15.50
2018-08-31T07:05:56.116Z,15.50
2018-08-31T07:08:23.896Z,15.50
2018-08-31T07:10:51.574Z,15.50
2018-08-31T07:13:19.387Z,15.50
2018-08-31T07:15:47.517Z,15.50
2018-08-31T07:18:15.303Z,15.50
2018-08-31T07:20:42.998Z,15.50
2018-08-31T07:23:10.676Z,15.60
2018-08-31T07:25:38.503Z,15.60
2018-08-31T07:28:06.204Z,15.60
2018-08-31T07:30:33.956Z,15.60
2018-08-31T07:33:02.060Z,15.60
2018-08-31T07:35:29.744Z,15.60
2018-08-31T07:37:57.403Z,15.70
2018-08-31T07:40:25.381Z,15.70
2018-08-31T07:42:53.182Z,15.70
2018-08-31T07:45:20.849Z,15.60
2018-08-31T07:47:48.702Z,15.60
2018-08-31T07:50:16.361Z,15.60
2018-08-31T07:52:44.057Z,15.60
2018-08-31T07:55:11.787Z,15.70
2018-08-31T07:57:39.420Z,15.80
2018-08-31T08:00:07.164Z,15.80
2018-08-31T08:02:35.056Z,15.80
2018-08-31T08:05:03.008Z,15.70
2018-08-31T08:07:31.285Z,15.70
2018-08-31T08:09:59.091Z,15.60
2018-08-31T08:12:26.907Z,15.60
2018-08-31T08:14:54.634Z,15.70
2018-08-31T08:17:22.420Z,15.70
2018-08-31T08:19:50.100Z,15.60
2018-08-31T08:22:18.033Z,15.70
2018-08-31T08:24:45.768Z,15.80
2018-08-31T08:27:13.540Z,15.80
2018-08-31T08:29:41.224Z,15.80
2018-08-31T08:32:10.430Z,15.90
2018-08-31T08:34:38.137Z,15.90
2018-08-31T08:37:06.971Z,15.90
2018-08-31T08:39:34.688Z,15.90
2018-08-31T08:42:02.552Z,15.90
2018-08-31T08:44:30.339Z,15.90
2018-08-31T08:46:58.040Z,15.80
2018-08-31T08:49:25.807Z,15.90
2018-08-31T08:51:53.624Z,15.90
2018-08-31T08:54:21.303Z,16.00
2018-08-31T08:56:48.996Z,16.00
2018-08-31T08:59:16.655Z,16.00
2018-08-31T09:01:44.510Z,16.00
2018-08-31T09:04:12.171Z,16.10
2018-08-31T09:06:39.841Z,16.00
2018-08-31T09:09:08.915Z,15.90
2018-08-31T09:11:36.855Z,15.60
2018-08-31T09:14:04.737Z,15.40
2018-08-31T09:16:32.443Z,15.30
2018-08-31T09:19:00.144Z,15.20
2018-08-31T09:21:27.826Z,15.00
2018-08-31T09:23:55.778Z,15.00
2018-08-31T09:26:23.607Z,14.90
2018-08-31T09:28:51.258Z,14.80
2018-08-31T09:31:19.004Z,14.80
2018-08-31T09:33:46.676Z,14.80
2018-08-31T09:36:14.366Z,14.70
2018-08-31T09:38:42.859Z,14.60
2018-08-31T09:41:10.848Z,14.60
2018-08-31T09:43:38.489Z,14.50
2018-08-31T09:46:21.279Z,14.50
2018-08-31T09:48:48.924Z,14.50
2018-08-31T09:51:16.928Z,14.50
2018-08-31T09:53:44.631Z,14.50
2018-08-31T09:56:12.284Z,14.40
2018-08-31T09:58:39.994Z,14.50
2018-08-31T10:01:13.667Z,14.60
2018-08-31T10:03:41.375Z,14.60
2018-08-31T10:06:09.088Z,14.70
2018-08-31T10:08:36.766Z,14.70
2018-08-31T10:11:04.448Z,14.80
2018-08-31T10:13:32.525Z,15.00
2018-08-31T10:16:00.456Z,15.00
2018-08-31T10:18:28.103Z,15.10
2018-08-31T10:20:55.750Z,15.10
2018-08-31T10:23:23.467Z,15.00
2018-08-31T10:25:51.233Z,15.00
2018-08-31T10:28:18.877Z,15.10
2018-08-31T10:30:46.539Z,15.20
2018-08-31T10:33:14.225Z,15.10
2018-08-31T10:35:41.954Z,15.30
2018-08-31T10:38:09.682Z,15.40
2018-08-31T10:40:37.504Z,15.40
2018-08-31T10:43:06.051Z,15.40
2018-08-31T10:45:33.722Z,15.40
2018-08-31T10:48:01.410Z,15.50
2018-08-31T10:50:29.108Z,15.50
2018-08-31T10:52:56.783Z,15.40
2018-08-31T10:55:25.492Z,15.40
2018-08-31T10:57:53.184Z,15.40
2018-08-31T11:00:21.079Z,15.50
2018-08-31T11:02:48.811Z,15.40
2018-08-31T11:05:16.577Z,15.50
2018-08-31T11:07:44.339Z,15.50
2018-08-31T11:10:12.047Z,15.40
2018-08-31T11:12:39.798Z,15.40
2018-08-31T11:15:07.432Z,15.40
2018-08-31T11:17:35.100Z,15.50
2018-08-31T11:20:02.863Z,15.50
2018-08-31T11:22:30.641Z,15.50
2018-08-31T11:24:58.463Z,15.50
2018-08-31T11:27:26.165Z,15.50
2018-08-31T11:29:53.840Z,15.50
2018-08-31T11:32:21.519Z,15.50
2018-08-31T11:34:49.299Z,15.50
2018-08-31T11:37:17.047Z,15.60
2018-08-31T11:39:44.720Z,15.60
2018-08-31T11:42:12.391Z,15.70
2018-08-31T11:44:40.094Z,15.80
2018-08-31T11:47:07.764Z,15.90
2018-08-31T11:49:35.405Z,15.70
2018-08-31T11:52:03.165Z,15.70
2018-08-31T11:54:31.051Z,15.70
2018-08-31T11:56:58.911Z,15.60
2018-08-31T11:59:26.571Z,15.60
2018-08-31T12:01:54.212Z,15.60
2018-08-31T12:04:22.515Z,15.50
2018-08-31T12:06:50.243Z,15.60
2018-08-31T12:09:17.952Z,15.70
2018-08-31T12:11:45.665Z,15.70
2018-08-31T12:14:13.332Z,15.80
2018-08-31T12:16:40.975Z,15.70
2018-08-31T12:19:08.628Z,15.70
2018-08-31T12:21:36.259Z,15.70
2018-08-31T12:24:03.951Z,15.70
2018-08-31T12:26:31.665Z,15.90
2018-08-31T12:28:59.351Z,15.90
2018-08-31T12:31:27.020Z,16.00
2018-08-31T12:33:54.676Z,15.90
2018-08-31T12:36:22.396Z,15.90
2018-08-31T12:38:50.097Z,15.90
2018-08-31T12:41:17.896Z,15.90
2018-08-31T12:43:45.744Z,16.00
2018-08-31T12:46:14.656Z,16.10
2018-08-31T12:48:42.367Z,16.10
2018-08-31T12:51:10.095Z,16.00
2018-08-31T12:53:38.942Z,16.10
2018-08-31T12:56:06.663Z,16.20
2018-08-31T12:58:34.442Z,16.20
2018-08-31T13:01:02.136Z,16.10
2018-08-31T13:03:29.841Z,16.10
2018-08-31T13:05:57.496Z,16.10
2018-08-31T13:08:25.173Z,16.20
2018-08-31T13:10:52.837Z,16.20
2018-08-31T13:13:20.506Z,16.20
2018-08-31T13:15:48.135Z,16.30
2018-08-31T13:18:15.898Z,16.30
2018-08-31T13:20:43.574Z,16.30
2018-08-31T13:23:11.268Z,16.20
2018-08-31T13:25:38.895Z,16.20
2018-08-31T13:28:06.770Z,16.30
2018-08-31T13:30:34.484Z,16.40
2018-08-31T13:33:02.211Z,16.40
2018-08-31T13:35:29.859Z,16.30
2018-08-31T13:37:57.639Z,16.30
2018-08-31T13:40:25.212Z,16.30
2018-08-31T13:42:52.868Z,16.30
2018-08-31T13:45:20.550Z,16.30
2018-08-31T13:47:48.294Z,16.30
2018-08-31T13:50:16.009Z,16.20
2018-08-31T13:52:43.825Z,16.20
2018-08-31T13:55:11.336Z,16.30
2018-08-31T13:57:39.340Z,16.50
2018-08-31T14:00:07.038Z,16.60
2018-08-31T14:02:34.693Z,16.70
2018-08-31T14:05:02.356Z,16.70
2018-08-31T14:07:29.991Z,16.80
2018-08-31T14:09:57.624Z,16.80
2018-08-31T14:12:25.347Z,16.80
2018-08-31T14:14:52.973Z,16.80
2018-08-31T14:17:20.840Z,16.90
2018-08-31T14:19:48.545Z,16.90
2018-08-31T14:22:16.309Z,17.00
2018-08-31T14:24:44.140Z,17.10
2018-08-31T14:27:11.742Z,17.10
2018-08-31T14:29:39.397Z,17.10
2018-08-31T14:32:07.006Z,17.20
2018-08-31T14:34:34.710Z,17.10
2018-08-31T14:37:02.363Z,17.20
2018-08-31T14:39:29.976Z,17.10
2018-08-31T14:41:57.591Z,16.90
2018-08-31T14:44:25.210Z,16.80
2018-08-31T14:46:52.835Z,16.80
2018-08-31T14:49:20.698Z,16.70
2018-08-31T14:51:48.656Z,16.70
2018-08-31T14:54:16.328Z,16.80
2018-08-31T14:56:44.303Z,16.80
2018-08-31T14:59:11.936Z,16.80
2018-08-31T15:01:40.574Z,16.70
2018-08-31T15:04:08.583Z,16.60
2018-08-31T15:06:36.243Z,16.60
2018-08-31T15:09:06.543Z,16.60
2018-08-31T15:11:34.254Z,16.60
2018-08-31T15:14:01.884Z,16.70
2018-08-31T15:16:29.669Z,16.70
2018-08-31T15:18:57.274Z,16.60
2018-08-31T15:21:24.934Z,16.60
2018-08-31T15:23:52.607Z,16.60
2018-08-31T15:26:20.371Z,16.70
2018-08-31T15:28:48.302Z,16.70
2018-08-31T15:31:15.960Z,16.60
2018-08-31T15:33:44.028Z,16.60
2018-08-31T15:36:11.895Z,16.60
2018-08-31T15:38:39.992Z,16.60
2018-08-31T15:41:07.709Z,16.60
2018-08-31T15:43:35.384Z,16.70
2018-08-31T15:46:05.136Z,16.70
2018-08-31T15:48:32.824Z,16.60
2018-08-31T15:51:00.503Z,16.70
2018-08-31T15:53:28.375Z,16.70
2018-08-31T15:55:56.223Z,16.70
2018-08-31T15:58:23.896Z,16.70
2018-08-31T16:00:51.707Z,16.80
2018-08-31T16:03:19.380Z,16.70
2018-08-31T16:05:47.332Z,16.70
2018-08-31T16:08:15.174Z,16.70
2018-08-31T16:10:43.100Z,16.80
2018-08-31T16:13:11.188Z,16.90
2018-08-31T16:15:39.009Z,16.90
2018-08-31T16:18:06.853Z,16.80
2018-08-31T16:20:34.497Z,16.80
2018-08-31T16:23:02.147Z,16.80
2018-08-31T16:25:29.968Z,16.80
2018-08-31T16:27:57.629Z,16.70
2018-08-31T16:30:25.640Z,16.70
2018-08-31T16:32:53.915Z,16.70
2018-08-31T16:35:21.776Z,16.70
2018-08-31T16:37:49.439Z,16.70
2018-08-31T16:40:17.063Z,16.60
2018-08-31T16:42:45.215Z,16.60
2018-08-31T16:45:13.161Z,16.60
2018-08-31T16:47:40.905Z,16.50
2018-08-31T16:50:08.775Z,16.60
2018-08-31T16:52:36.501Z,16.60
2018-08-31T16:55:04.272Z,16.60
2018-08-31T16:57:31.973Z,16.60
2018-08-31T16:59:59.778Z,16.60
2018-08-31T17:02:27.415Z,16.50
2018-08-31T17:04:55.332Z,16.50
2018-08-31T17:07:23.100Z,16.50
2018-08-31T17:09:50.787Z,16.40
2018-08-31T17:12:18.450Z,16.40
2018-08-31T17:14:46.091Z,16.40
2018-08-31T17:17:13.799Z,16.50
2018-08-31T17:19:43.657Z,16.40
2018-08-31T17:22:11.303Z,16.40
2018-08-31T17:24:39.060Z,16.20
2018-08-31T17:27:12.531Z,16.20
2018-08-31T17:29:45.498Z,16.20
2018-08-31T17:32:19.627Z,16.10
2018-08-31T17:34:53.349Z,16.10
2018-08-31T17:37:26.964Z,16.00
2018-08-31T17:39:55.410Z,16.00
2018-08-31T17:42:23.604Z,16.00
2018-08-31T17:44:51.531Z,15.90
2018-08-31T17:47:19.214Z,15.90
2018-08-31T17:49:46.968Z,15.80
2018-08-31T17:52:14.874Z,15.80
2018-08-31T17:54:42.595Z,15.70
2018-08-31T17:57:10.629Z,15.70
2018-08-31T17:59:38.304Z,15.70
2018-08-31T18:02:06.024Z,15.50
2018-08-31T18:04:33.859Z,15.60
2018-08-31T18:07:01.515Z,15.60
2018-08-31T18:09:29.297Z,15.50
2018-08-31T18:11:56.847Z,15.50
2018-08-31T18:14:24.657Z,15.50
2018-08-31T18:16:52.380Z,15.50
2018-08-31T18:19:20.151Z,15.50
2018-08-31T18:21:47.816Z,15.50
2018-08-31T18:24:15.454Z,15.40
2018-08-31T18:26:43.235Z,15.40
2018-08-31T18:29:11.100Z,15.40
2018-08-31T18:31:38.854Z,15.40
2018-08-31T18:34:06.469Z,15.30
2018-08-31T18:36:34.075Z,15.30
2018-08-31T18:39:01.831Z,15.30
2018-08-31T18:41:29.506Z,15.30
2018-08-31T18:43:57.145Z,15.20
2018-08-31T18:46:24.993Z,15.20
2018-08-31T18:48:52.640Z,15.20
2018-08-31T18:51:20.268Z,15.20
2018-08-31T18:53:48.267Z,15.10
2018-08-31T18:56:16.109Z,15.10
2018-08-31T18:58:43.841Z,15.10
2018-08-31T19:01:11.588Z,15.00
2018-08-31T19:03:39.198Z,15.00
2018-08-31T19:06:07.651Z,15.00
2018-08-31T19:08:35.284Z,14.90
2018-08-31T19:11:03.236Z,14.90
2018-08-31T19:13:31.307Z,14.90
2018-08-31T19:15:58.941Z,14.90
2018-08-31T19:18:26.636Z,14.80
2018-08-31T19:20:54.619Z,14.80
2018-08-31T19:23:22.278Z,14.90
2018-08-31T19:25:49.951Z,14.80
2018-08-31T19:28:17.847Z,14.90
2018-08-31T19:30:45.465Z,14.90
2018-08-31T19:33:13.115Z,14.90
2018-08-31T19:35:40.774Z,14.90
2018-08-31T19:38:08.443Z,14.90
2018-08-31T19:40:36.124Z,15.00
2018-08-31T19:43:04.177Z,15.00
2018-08-31T19:45:31.835Z,14.90
2018-08-31T19:47:59.861Z,14.90
2018-08-31T19:50:27.679Z,14.90
2018-08-31T19:52:55.714Z,14.90
2018-08-31T19:55:23.492Z,14.90
2018-08-31T19:57:51.143Z,14.90
2018-08-31T20:00:18.828Z,14.90
2018-08-31T20:02:46.655Z,14.90
2018-08-31T20:05:14.388Z,14.90
2018-08-31T20:07:42.056Z,14.90
2018-08-31T20:10:10.262Z,14.90
2018-08-31T20:12:37.961Z,14.90
2018-08-31T20:15:06.236Z,14.80
2018-08-31T20:17:33.908Z,14.80
2018-08-31T20:20:01.784Z,14.80
2018-08-31T20:22:29.443Z,14.80
2018-08-31T20:24:57.113Z,14.90
2018-08-31T20:27:24.811Z,14.80
2018-08-31T20:29:52.580Z,15.00
2018-08-31T20:32:20.274Z,14.90
2018-08-31T20:34:48.203Z,15.00
2018-08-31T20:37:16.218Z,15.10
2018-08-31T20:39:43.883Z,15.10
2018-08-31T20:42:11.725Z,15.10
2018-08-31T20:44:39.368Z,15.00
2018-08-31T20:47:07.246Z,14.90
2018-08-31T20:49:34.930Z,14.80
2018-08-31T20:52:02.732Z,14.80
2018-08-31T20:54:30.400Z,14.70
2018-08-31T20:56:58.283Z,14.80
2018-08-31T20:59:25.929Z,14.80
2018-08-31T21:01:53.620Z,14.80
2018-08-31T21:04:21.491Z,14.70
2018-08-31T21:06:49.208Z,14.70
2018-08-31T21:09:16.888Z,14.60
2018-08-31T21:11:44.616Z,14.60
2018-08-31T21:14:12.268Z,14.50
2018-08-31T21:16:39.963Z,14.50
2018-08-31T21:19:07.631Z,14.30
2018-08-31T21:21:35.308Z,14.20
2018-08-31T21:24:02.969Z,14.10
2018-08-31T21:26:30.676Z,14.20
2018-08-31T21:28:58.350Z,14.20
2018-08-31T21:31:26.004Z,14.10
2018-08-31T21:33:53.660Z,14.20
2018-08-31T21:36:21.299Z,14.20
2018-08-31T21:38:48.999Z,14.20
2018-08-31T21:41:16.643Z,14.10
2018-08-31T21:43:44.543Z,14.00
2018-08-31T21:46:12.968Z,14.00
2018-08-31T21:48:40.609Z,14.00
2018-08-31T21:51:08.377Z,14.10
2018-08-31T21:53:36.096Z,14.20
2018-08-31T21:56:03.760Z,14.20
2018-08-31T21:58:31.424Z,14.10
2018-08-31T22:01:05.124Z,14.10
2018-08-31T22:03:32.792Z,14.00
2018-08-31T22:06:00.615Z,14.10
2018-08-31T22:08:28.314Z,14.30
2018-08-31T22:10:55.930Z,14.40
2018-08-31T22:13:23.619Z,14.40
2018-08-31T22:15:51.241Z,14.30
2018-08-31T22:18:18.866Z,14.20
2018-08-31T22:20:46.608Z,14.20
2018-08-31T22:23:14.214Z,14.20
2018-08-31T22:25:42.055Z,14.10
2018-08-31T22:28:09.708Z,14.10
2018-08-31T22:30:37.436Z,14.20
2018-08-31T22:33:05.120Z,14.30
2018-08-31T22:35:32.870Z,14.20
2018-08-31T22:38:00.572Z,14.20
2018-08-31T22:40:28.356Z,14.20
2018-08-31T22:42:56.035Z,14.10
2018-08-31T22:45:23.895Z,14.10
2018-08-31T22:47:51.545Z,14.10
2018-08-31T22:50:19.204Z,14.10
2018-08-31T22:52:46.895Z,14.20
2018-08-31T22:55:14.625Z,14.20
2018-08-31T22:57:42.472Z,14.20
2018-08-31T23:00:10.223Z,14.20
2018-08-31T23:02:38.976Z,14.20
2018-08-31T23:05:06.732Z,14.20
2018-08-31T23:07:40.182Z,14.20
2018-08-31T23:10:07.952Z,14.20
2018-08-31T23:12:35.623Z,14.30
2018-08-31T23:15:03.374Z,14.20
2018-08-31T23:17:31.058Z,14.20
2018-08-31T23:19:59.235Z,14.20
2018-08-31T23:22:28.287Z,14.20
2018-08-31T23:24:57.251Z,14.20
2018-08-31T23:27:25.176Z,14.20
2018-08-31T23:29:53.192Z,14.20
2018-08-31T23:32:20.980Z,14.30
2018-08-31T23:34:48.610Z,14.30
2018-08-31T23:37:16.360Z,14.30
2018-08-31T23:39:43.984Z,14.20
2018-08-31T23:42:11.895Z,14.20
2018-08-31T23:44:39.572Z,14.20
2018-08-31T23:47:07.351Z,14.20
2018-08-31T23:49:35.147Z,14.20
2018-08-31T23:52:02.774Z,14.20
2018-08-31T23:54:30.432Z,14.20
2018-08-31T23:56:58.320Z,14.20
2018-08-31T23:59:26.287Z,14.30
